Chemical Pioneer — KAFO — position and weather

sailwx.info

Track history (hours):
 
Tides and Currents Weather Stations Pressure Air Temp Water Temp Dewpoint Dewpoint Depression Visibility Wind Speed Wind Dir Waves Ship Positions

Chemical Pioneer

Owner: US Shipping Corp, Edison, NJ. More information available from US FCC via Universal Licensing System and Coast Guard Vessel Documentation Center.

Last reported at 2018-Jun-19 14:39 UTC. Time now 2018-Jun-19 23:48 UTC.
Position N 42°16' W 069°46'.

Type: Tanker. MMSI: 366032000.

Date/timePositionNaut miles runAvg speedWind from/ knotsBaromVisibWave heightAir tempDewpointWater temp
2018-Jun-19 14:39N 42°16' W 069°46'315.5
2018-Jun-19 14:29N 42°19' W 069°46'715.0
2018-Jun-19 14:00N 42°26' W 069°46'1815.0
2018-Jun-19 12:46N 42°43' W 069°36'916.1
2018-Jun-19 12:14N 42°51' W 069°31'5115.8
2018-Jun-19 08:59N 43°35' W 068°55'815.7
2018-Jun-19 08:28N 43°41' W 068°47'715.3
2018-Jun-19 08:00N 43°47' W 068°42'714.3
2018-Jun-19 07:30N 43°54' W 068°39'613.1
2018-Jun-19 07:00N 43°56' W 068°48'510.6
2018-Jun-19 06:30N 43°57' W 068°55'714.0
2018-Jun-19 06:00N 44°03' W 069°00'815.0
2018-Jun-19 05:30N 44°11' W 069°01'1710.2
2018-Jun-19 03:48N 44°27' W 068°54'0 0.0
2018-Jun-18 09:20N 44°27' W 068°54'11 8.2
2018-Jun-18 08:02N 44°17' W 068°58'113.9
2018-Jun-18 07:59N 44°16' W 068°58'813.8
2018-Jun-18 07:24N 44°08' W 069°01'613.6
2018-Jun-18 06:59N 44°03' W 069°01'713.8
2018-Jun-18 06:30N 43°57' W 068°55'5 9.9
2018-Jun-18 06:00N 43°56' W 068°49'612.2
2018-Jun-18 05:29N 43°55' W 068°40'815.3
2018-Jun-18 04:57N 43°47' W 068°42'815.7
2018-Jun-18 04:29N 43°40' W 068°47'715.5
2018-Jun-18 04:00N 43°34' W 068°53'816.1
2018-Jun-18 03:30N 43°27' W 068°58'816.5
2018-Jun-18 03:00N 43°20' W 069°04'816.3
2018-Jun-18 02:30N 43°13' W 069°10'816.3
2018-Jun-18 02:00N 43°06' W 069°15'816.1
2018-Jun-18 01:30N 42°59' W 069°21'816.2
2018-Jun-18 01:00N 42°52' W 069°27'816.1
2018-Jun-18 00:30N 42°45' W 069°32'816.0
2018-Jun-18 00:00N 42°39' W 069°38'816.4
2018-Jun-17 23:30N 42°32' W 069°44'815.8
2018-Jun-17 23:00N 42°24' W 069°46'815.9
2018-Jun-17 22:30N 42°16' W 069°46'815.5
2018-Jun-17 22:00N 42°08' W 069°45'715.0
2018-Jun-17 21:30N 42°01' W 069°45'611.0
2018-Jun-17 21:00N 41°55' W 069°44'5 9.6
2018-Jun-17 20:30N 41°51' W 069°41'5 9.7
2018-Jun-17 20:00N 41°47' W 069°38'5 9.7
2018-Jun-17 19:30N 41°42' W 069°35'9 9.7
2018-Jun-17 18:33N 41°34' W 069°29'3 9.8
2018-Jun-17 18:15N 41°32' W 069°27'4 9.8
2018-Jun-17 17:52N 41°28' W 069°25'50014.7
2018-Jun-16 07:52N 34°39' W 075°30'915.8
2018-Jun-16 07:19N 34°34' W 075°38'515.6
2018-Jun-16 07:01N 34°31' W 075°42'815.4
2018-Jun-16 06:30N 34°26' W 075°50'815.3
2018-Jun-16 06:00N 34°21' W 075°57'915.5
2018-Jun-16 05:25N 34°16' W 076°06'92 7.8
2018-Jun-15 17:38N 34°11' W 077°57'1 4.7
2018-Jun-15 17:30N 34°12' W 077°57'0 0.7
2018-Jun-15 16:59N 34°12' W 077°57'0 0.0
2018-Jun-14 20:55N 34°12' W 077°57'0 0.0
2018-Jun-14 20:28N 34°12' W 077°57'0 0.0
2018-Jun-14 20:00N 34°12' W 077°57'2 0.1
2018-Jun-14 02:15N 34°11' W 077°57'  
2018-Jun-11 21:10N 27°23' W 079°47'213.3
2018-Jun-11 21:00N 27°21' W 079°47'714.1
2018-Jun-11 20:30N 27°14' W 079°45'918.8
2018-Jun-11 20:00N 27°05' W 079°43'918.7
2018-Jun-11 19:30N 26°55' W 079°43'918.9
2018-Jun-11 19:00N 26°46' W 079°45'1018.6
2018-Jun-11 18:29N 26°36' W 079°45'918.6
2018-Jun-11 18:00N 26°27' W 079°46'918.5
2018-Jun-11 17:30N 26°18' W 079°47'918.6
2018-Jun-11 17:00N 26°09' W 079°49'918.5
2018-Jun-11 16:30N 25°60' W 079°50'918.7
2018-Jun-11 16:01N 25°51' W 079°52'918.3
2018-Jun-11 15:31N 25°42' W 079°53'917.8
2018-Jun-11 15:00N 25°33' W 079°54'  
Track history (hours):
 
Tides and Currents Weather Stations Pressure Air Temp Water Temp Dewpoint Dewpoint Depression Visibility Wind Speed Wind Dir Waves Ship Positions

Chemical Pioneer

Owner: US Shipping Corp, Edison, NJ. More information available from US FCC via Universal Licensing System and Coast Guard Vessel Documentation Center.

Last reported at 2018-Jun-19 14:39 UTC. Time now 2018-Jun-19 23:48 UTC.
Position N 42°16' W 069°46'.

Type: Tanker. MMSI: 366032000.

Date/timePositionNaut miles runAvg speedWind from/ knotsBaromVisibWave heightAir tempDewpointWater temp
2018-Jun-19 14:39N 42°16' W 069°46'315.5
2018-Jun-19 14:29N 42°19' W 069°46'715.0
2018-Jun-19 14:00N 42°26' W 069°46'1815.0
2018-Jun-19 12:46N 42°43' W 069°36'916.1
2018-Jun-19 12:14N 42°51' W 069°31'5115.8
2018-Jun-19 08:59N 43°35' W 068°55'815.7
2018-Jun-19 08:28N 43°41' W 068°47'715.3
2018-Jun-19 08:00N 43°47' W 068°42'714.3
2018-Jun-19 07:30N 43°54' W 068°39'613.1
2018-Jun-19 07:00N 43°56' W 068°48'510.6
2018-Jun-19 06:30N 43°57' W 068°55'714.0
2018-Jun-19 06:00N 44°03' W 069°00'815.0
2018-Jun-19 05:30N 44°11' W 069°01'1710.2
2018-Jun-19 03:48N 44°27' W 068°54'0 0.0
2018-Jun-18 09:20N 44°27' W 068°54'11 8.2
2018-Jun-18 08:02N 44°17' W 068°58'113.9
2018-Jun-18 07:59N 44°16' W 068°58'813.8
2018-Jun-18 07:24N 44°08' W 069°01'613.6
2018-Jun-18 06:59N 44°03' W 069°01'713.8
2018-Jun-18 06:30N 43°57' W 068°55'5 9.9
2018-Jun-18 06:00N 43°56' W 068°49'612.2
2018-Jun-18 05:29N 43°55' W 068°40'815.3
2018-Jun-18 04:57N 43°47' W 068°42'815.7
2018-Jun-18 04:29N 43°40' W 068°47'715.5
2018-Jun-18 04:00N 43°34' W 068°53'816.1
2018-Jun-18 03:30N 43°27' W 068°58'816.5
2018-Jun-18 03:00N 43°20' W 069°04'816.3
2018-Jun-18 02:30N 43°13' W 069°10'816.3
2018-Jun-18 02:00N 43°06' W 069°15'816.1
2018-Jun-18 01:30N 42°59' W 069°21'816.2
2018-Jun-18 01:00N 42°52' W 069°27'816.1
2018-Jun-18 00:30N 42°45' W 069°32'816.0
2018-Jun-18 00:00N 42°39' W 069°38'816.4
2018-Jun-17 23:30N 42°32' W 069°44'815.8
2018-Jun-17 23:00N 42°24' W 069°46'815.9
2018-Jun-17 22:30N 42°16' W 069°46'815.5
2018-Jun-17 22:00N 42°08' W 069°45'715.0
2018-Jun-17 21:30N 42°01' W 069°45'611.0
2018-Jun-17 21:00N 41°55' W 069°44'5 9.6
2018-Jun-17 20:30N 41°51' W 069°41'5 9.7
2018-Jun-17 20:00N 41°47' W 069°38'5 9.7
2018-Jun-17 19:30N 41°42' W 069°35'9 9.7
2018-Jun-17 18:33N 41°34' W 069°29'3 9.8
2018-Jun-17 18:15N 41°32' W 069°27'4 9.8
2018-Jun-17 17:52N 41°28' W 069°25'50014.7
2018-Jun-16 07:52N 34°39' W 075°30'915.8
2018-Jun-16 07:19N 34°34' W 075°38'515.6
2018-Jun-16 07:01N 34°31' W 075°42'815.4
2018-Jun-16 06:30N 34°26' W 075°50'815.3
2018-Jun-16 06:00N 34°21' W 075°57'915.5
2018-Jun-16 05:25N 34°16' W 076°06'92 7.8
2018-Jun-15 17:38N 34°11' W 077°57'1 4.7
2018-Jun-15 17:30N 34°12' W 077°57'0 0.7
2018-Jun-15 16:59N 34°12' W 077°57'0 0.0
2018-Jun-14 20:55N 34°12' W 077°57'0 0.0
2018-Jun-14 20:28N 34°12' W 077°57'0 0.0
2018-Jun-14 20:00N 34°12' W 077°57'2 0.1
2018-Jun-14 02:15N 34°11' W 077°57'  
2018-Jun-11 21:10N 27°23' W 079°47'213.3
2018-Jun-11 21:00N 27°21' W 079°47'714.1
2018-Jun-11 20:30N 27°14' W 079°45'918.8
2018-Jun-11 20:00N 27°05' W 079°43'918.7
2018-Jun-11 19:30N 26°55' W 079°43'918.9
2018-Jun-11 19:00N 26°46' W 079°45'1018.6
2018-Jun-11 18:29N 26°36' W 079°45'918.6
2018-Jun-11 18:00N 26°27' W 079°46'918.5
2018-Jun-11 17:30N 26°18' W 079°47'918.6
2018-Jun-11 17:00N 26°09' W 079°49'918.5
2018-Jun-11 16:30N 25°60' W 079°50'918.7
2018-Jun-11 16:01N 25°51' W 079°52'918.3
2018-Jun-11 15:31N 25°42' W 079°53'917.8
2018-Jun-11 15:00N 25°33' W 079°54'  

Dump ship's entire track history